KSUN/SUN METAR and TAF weather

Enter ICAO airport designator
Station Type Date Time Source
KSUN METAR 2021/04/18 00:47 UTC NOAA

KSUN 180047Z 20006KT 10SM SKC 14/M09 A3022


Station Type Date Time Source
KSUN Decoded METAR 2021/04/18 00:47 UTC NOAA

Hailey, Friedman Memorial Airport, ID, United States (KSUN) 43-30N 114-18W
Apr 17, 2021 - 08:47 PM EDT / 2021.04.18 0047 UTC
Wind: from the SSW (200 degrees) at 7 MPH (6 KT):0
Visibility: 10 mile(s):0
Sky conditions: clear
Temperature: 57 F (14 C)
Dew Point: 15 F (-9 C)
Relative Humidity: 19%
Pressure (altimeter): 30.22 in. Hg (1023 hPa)
ob: KSUN 180047Z 20006KT 10SM SKC 14/M09 A3022
cycle: 1

Station Type Date Time Source
KSUN TAF 2021/04/17 18:21 UTC NOAA

TAF KSUN 171720Z 1718/1824 16006KT P6SM FEW060
FM172100 24010KT P6SM FEW070
FM180300 16008KT P6SM SKC
FM180500 31006KT P6SM SKC
FM181000 32010KT P6SM SKC

Example: see airport list